createdAt,value
2022-12-08T00:00:06.686Z,157.38
2022-12-08T00:02:39.979Z,145.35
2022-12-08T00:05:28.708Z,131.07
2022-12-08T00:08:15.025Z,147.27
2022-12-08T00:11:02.669Z,134.90
2022-12-08T00:14:04.450Z,139.82
2022-12-08T00:16:45.510Z,142.15
2022-12-08T00:19:12.520Z,136.32
2022-12-08T00:21:40.512Z,141.68
2022-12-08T00:24:28.178Z,141.32
2022-12-08T00:27:12.112Z,147.00
2022-12-08T00:29:38.993Z,139.35
2022-12-08T00:32:26.745Z,144.95
2022-12-08T00:35:27.911Z,130.48
2022-12-08T00:38:08.573Z,151.40
2022-12-08T00:40:35.402Z,135.32
2022-12-08T00:43:02.474Z,163.63
2022-12-08T00:45:49.606Z,150.38
2022-12-08T00:48:50.668Z,149.75
2022-12-08T00:51:32.576Z,158.40
2022-12-08T00:54:01.166Z,139.10
2022-12-08T00:56:28.433Z,147.35
2022-12-08T00:59:02.594Z,145.95
2022-12-08T01:02:03.578Z,152.20
2022-12-08T01:04:44.352Z,144.20
2022-12-08T01:07:12.190Z,159.10
2022-12-08T01:09:39.505Z,157.93
2022-12-08T01:12:07.165Z,159.20
2022-12-08T01:14:34.505Z,154.35
2022-12-08T01:17:02.354Z,156.13
2022-12-08T01:19:30.937Z,154.05
2022-12-08T01:21:58.527Z,153.68
2022-12-08T01:24:25.575Z,139.60
2022-12-08T01:27:13.583Z,136.73
2022-12-08T01:30:14.654Z,143.25
2022-12-08T01:32:55.175Z,162.60
2022-12-08T01:35:42.825Z,147.30
2022-12-08T01:38:23.587Z,147.07
2022-12-08T01:40:50.601Z,135.93
2022-12-08T01:43:20.870Z,149.32
2022-12-08T01:45:48.456Z,155.60
2022-12-08T01:48:25.013Z,157.82
2022-12-08T01:50:54.148Z,135.48
2022-12-08T01:53:30.091Z,140.52
2022-12-08T01:56:27.133Z,129.75
2022-12-08T01:59:26.889Z,134.15
2022-12-08T02:01:54.376Z,137.10
2022-12-08T02:04:21.533Z,140.63
2022-12-08T02:06:51.340Z,143.77
2022-12-08T02:09:19.987Z,118.78
2022-12-08T02:11:48.752Z,131.38
2022-12-08T02:14:15.943Z,127.75
2022-12-08T02:17:00.418Z,131.60
2022-12-08T02:22:14.420Z,96.85
2022-12-08T02:24:53.810Z,114.25
2022-12-08T02:27:39.203Z,104.82
2022-12-08T02:30:38.625Z,97.53
2022-12-08T02:34:24.865Z,91.53
2022-12-08T02:37:25.866Z,90.40
2022-12-08T02:40:12.319Z,82.13
2022-12-08T02:42:48.878Z,91.72
2022-12-08T02:45:31.975Z,91.97
2022-12-08T02:48:00.664Z,86.68
2022-12-08T02:50:47.930Z,87.55
2022-12-08T02:53:32.169Z,83.85
2022-12-08T02:56:22.380Z,100.20
2022-12-08T02:58:56.076Z,85.05
2022-12-08T03:01:42.242Z,90.45
2022-12-08T03:04:33.042Z,94.88
2022-12-08T03:07:31.023Z,102.60
2022-12-08T03:10:35.777Z,93.72
2022-12-08T03:13:21.948Z,92.88
2022-12-08T03:15:51.877Z,101.93
2022-12-08T03:18:27.065Z,101.20
2022-12-08T03:20:53.956Z,104.57
2022-12-08T03:23:23.259Z,121.20
2022-12-08T03:26:18.163Z,103.60
2022-12-08T03:31:15.297Z,111.65
2022-12-08T03:33:48.123Z,109.05
2022-12-08T03:36:36.898Z,118.47
2022-12-08T03:39:37.983Z,105.63
2022-12-08T03:42:18.324Z,98.82
2022-12-08T03:44:45.498Z,103.72
2022-12-08T03:47:12.965Z,118.13
2022-12-08T03:50:00.738Z,129.75
2022-12-08T03:52:41.143Z,117.50
2022-12-08T03:55:08.432Z,104.15
2022-12-08T03:57:35.945Z,113.38
2022-12-08T04:00:05.705Z,106.53
2022-12-08T04:02:33.053Z,116.57
2022-12-08T04:05:00.079Z,118.82
2022-12-08T04:07:26.933Z,113.95
2022-12-08T04:09:54.390Z,114.43
2022-12-08T04:12:22.107Z,97.15
2022-12-08T04:14:49.690Z,108.03
2022-12-08T04:17:17.161Z,107.15
2022-12-08T04:20:04.989Z,110.43
2022-12-08T04:23:05.648Z,101.63
2022-12-08T04:25:46.424Z,107.75
2022-12-08T04:28:13.499Z,95.85
2022-12-08T04:30:41.361Z,101.05
2022-12-08T04:33:08.354Z,108.63
2022-12-08T04:35:55.983Z,112.90
2022-12-08T04:38:37.031Z,96.03
2022-12-08T04:41:04.062Z,117.38
2022-12-08T04:43:32.211Z,108.32
2022-12-08T04:45:59.237Z,123.47
2022-12-08T04:48:26.171Z,99.63
2022-12-08T04:50:53.305Z,105.60
2022-12-08T04:53:46.132Z,101.25
2022-12-08T04:56:47.712Z,110.18
2022-12-08T04:59:28.271Z,98.95
2022-12-08T05:01:55.465Z,97.57
2022-12-08T05:04:22.507Z,105.45
2022-12-08T05:06:49.493Z,109.45
2022-12-08T05:09:16.353Z,111.30
2022-12-08T05:11:48.604Z,114.88
2022-12-08T05:14:17.433Z,113.28
2022-12-08T05:16:45.101Z,98.88
2022-12-08T05:19:12.897Z,106.88
2022-12-08T05:21:40.028Z,110.13
2022-12-08T05:24:07.224Z,110.70
2022-12-08T05:26:34.147Z,103.35
2022-12-08T05:29:21.688Z,126.93
2022-12-08T05:32:05.972Z,121.78
2022-12-08T05:34:32.914Z,134.55
2022-12-08T05:37:19.712Z,108.85
2022-12-08T05:40:00.879Z,118.45
2022-12-08T05:42:27.990Z,110.63
2022-12-08T05:44:54.837Z,104.35
2022-12-08T05:47:21.870Z,113.22
2022-12-08T05:49:48.766Z,123.45
2022-12-08T05:52:16.970Z,108.47
2022-12-08T05:54:44.343Z,118.97
2022-12-08T05:57:11.595Z,103.30
2022-12-08T05:59:39.746Z,111.68
2022-12-08T06:02:26.888Z,101.15
2022-12-08T06:05:27.682Z,122.80
2022-12-08T06:08:08.626Z,106.93
2022-12-08T06:10:35.722Z,109.60
2022-12-08T06:13:02.628Z,113.50
2022-12-08T06:15:29.498Z,94.95
2022-12-08T06:17:56.339Z,116.07
2022-12-08T06:20:43.737Z,96.40
2022-12-08T06:23:24.407Z,99.45
2022-12-08T06:25:51.265Z,93.60
2022-12-08T06:28:18.178Z,93.30
2022-12-08T06:30:45.042Z,103.95
2022-12-08T06:33:31.712Z,94.38
2022-12-08T06:36:34.765Z,98.28
2022-12-08T06:39:15.279Z,109.22
2022-12-08T06:42:00.851Z,95.45
2022-12-08T06:44:47.709Z,104.07
2022-12-08T06:47:28.254Z,110.35
2022-12-08T06:50:16.155Z,103.97
2022-12-08T06:53:04.837Z,103.95
2022-12-08T06:58:20.664Z,114.55
2022-12-08T07:00:48.069Z,116.00
2022-12-08T07:03:15.187Z,116.47
2022-12-08T07:05:42.053Z,98.20
2022-12-08T07:08:09.958Z,110.30
2022-12-08T07:10:56.745Z,112.40
2022-12-08T07:13:57.737Z,116.40
2022-12-08T07:16:39.413Z,107.55
2022-12-08T07:19:06.709Z,109.43
2022-12-08T07:21:33.779Z,110.35
2022-12-08T07:24:00.661Z,116.88
2022-12-08T07:26:27.697Z,98.53
2022-12-08T07:28:54.506Z,128.23
2022-12-08T07:31:37.743Z,102.53
2022-12-08T07:34:38.044Z,101.18
2022-12-08T07:37:25.026Z,108.05
2022-12-08T07:40:08.331Z,111.13
2022-12-08T07:42:56.855Z,106.75
2022-12-08T07:45:51.858Z,104.25
2022-12-08T07:48:32.647Z,98.07
2022-12-08T07:51:04.448Z,96.10
2022-12-08T07:53:32.253Z,101.90
2022-12-08T07:55:59.451Z,108.75
2022-12-08T07:58:27.663Z,98.95
2022-12-08T08:00:54.716Z,107.20
2022-12-08T08:03:22.437Z,92.30
2022-12-08T08:05:50.224Z,98.85
2022-12-08T08:08:17.907Z,84.72
2022-12-08T08:10:47.008Z,100.97
2022-12-08T08:13:33.939Z,92.50
2022-12-08T08:16:38.402Z,101.22
2022-12-08T08:21:47.951Z,89.20
2022-12-08T08:24:15.427Z,95.90
2022-12-08T08:26:43.550Z,95.95
2022-12-08T08:29:10.592Z,91.28
2022-12-08T08:31:37.759Z,88.40
2022-12-08T08:34:06.458Z,85.75
2022-12-08T08:36:53.828Z,92.03
2022-12-08T08:39:34.439Z,94.00
2022-12-08T08:42:01.490Z,87.20
2022-12-08T08:44:48.853Z,82.57
2022-12-08T08:47:29.806Z,93.10
2022-12-08T08:49:56.781Z,98.07
2022-12-08T08:52:23.719Z,104.22
2022-12-08T08:54:50.524Z,89.22
2022-12-08T08:57:25.044Z,95.57
2022-12-08T08:59:52.793Z,81.25
2022-12-08T09:02:20.208Z,103.40
2022-12-08T09:04:47.544Z,89.63
2022-12-08T09:07:14.977Z,101.20
2022-12-08T09:09:42.119Z,100.63
2022-12-08T09:12:09.841Z,98.88
2022-12-08T09:14:37.359Z,91.80
2022-12-08T09:17:24.886Z,102.22
2022-12-08T09:20:26.702Z,86.32
2022-12-08T09:23:07.640Z,85.55
2022-12-08T09:25:35.209Z,98.03
2022-12-08T09:28:02.932Z,77.25
2022-12-08T09:30:30.685Z,95.68
2022-12-08T09:33:17.851Z,82.25
2022-12-08T09:36:18.914Z,90.18
2022-12-08T09:38:59.574Z,77.53
2022-12-08T09:41:50.280Z,84.25
2022-12-08T09:44:35.870Z,73.25
2022-12-08T09:47:09.185Z,80.63
2022-12-08T09:50:03.391Z,87.18
2022-12-08T09:52:59.955Z,80.22
2022-12-08T09:56:05.864Z,85.85
2022-12-08T09:58:58.569Z,81.28
2022-12-08T10:01:32.252Z,77.85
2022-12-08T10:04:00.576Z,80.00
2022-12-08T10:06:48.257Z,89.50
2022-12-08T10:09:25.081Z,88.03
2022-12-08T10:12:08.213Z,72.65
2022-12-08T10:14:51.828Z,84.57
2022-12-08T10:17:31.897Z,77.57
2022-12-08T10:20:29.836Z,72.82
2022-12-08T10:23:53.192Z,70.20
2022-12-08T10:26:33.446Z,69.50
2022-12-08T10:29:02.910Z,68.32
2022-12-08T10:31:31.363Z,71.35
2022-12-08T10:34:14.878Z,66.40
2022-12-08T10:37:06.192Z,73.72
2022-12-08T10:40:23.956Z,64.55
2022-12-08T10:43:07.042Z,64.63
2022-12-08T10:45:41.795Z,70.32
2022-12-08T10:48:33.473Z,67.70
2022-12-08T10:51:00.670Z,68.55
2022-12-08T10:53:33.216Z,67.53
2022-12-08T10:56:03.059Z,67.47
2022-12-08T10:58:59.331Z,76.28
2022-12-08T11:01:36.631Z,71.72
2022-12-08T11:04:07.156Z,70.07
2022-12-08T11:06:40.025Z,71.00
2022-12-08T11:09:24.568Z,74.30
2022-12-08T11:12:21.848Z,76.45
2022-12-08T11:15:05.777Z,77.55
2022-12-08T11:17:39.629Z,71.97
2022-12-08T11:20:10.009Z,73.90
2022-12-08T11:22:58.887Z,77.72
2022-12-08T11:26:01.391Z,75.25
2022-12-08T11:28:42.938Z,78.13
2022-12-08T11:31:38.359Z,68.05
2022-12-08T11:34:07.016Z,73.07
2022-12-08T11:36:54.240Z,69.03
2022-12-08T11:39:42.252Z,65.40
2022-12-08T11:42:24.909Z,68.57
2022-12-08T11:45:14.750Z,65.40
2022-12-08T11:47:55.815Z,65.40
2022-12-08T11:50:28.512Z,72.22
2022-12-08T11:52:57.168Z,64.85
2022-12-08T11:55:50.175Z,63.30
2022-12-08T11:58:38.140Z,56.38
2022-12-08T12:01:05.384Z,71.32
2022-12-08T12:03:41.394Z,58.63
2022-12-08T12:06:54.323Z,64.68
2022-12-08T12:09:37.076Z,59.80
2022-12-08T12:12:44.906Z,58.83
2022-12-08T12:16:04.130Z,62.13
2022-12-08T12:18:46.261Z,63.88
2022-12-08T12:21:18.407Z,64.00
2022-12-08T12:24:03.766Z,59.45
2022-12-08T12:26:38.188Z,55.75
2022-12-08T12:29:12.285Z,59.90
2022-12-08T12:34:27.770Z,60.25
2022-12-08T12:37:24.907Z,57.63
2022-12-08T12:40:27.029Z,61.90
2022-12-08T12:43:42.172Z,57.33
2022-12-08T12:46:26.686Z,57.15
2022-12-08T12:48:53.740Z,57.97
2022-12-08T12:51:47.780Z,52.25
2022-12-08T12:54:22.356Z,59.83
2022-12-08T12:56:55.153Z,59.95
2022-12-08T12:59:29.599Z,66.07
2022-12-08T13:02:16.958Z,62.05
2022-12-08T13:05:28.989Z,58.83
2022-12-08T13:08:25.229Z,54.50
2022-12-08T13:11:09.303Z,62.13
2022-12-08T13:13:37.887Z,59.40
2022-12-08T13:16:24.954Z,63.30
2022-12-08T13:19:16.064Z,63.03
2022-12-08T13:22:02.969Z,62.42
2022-12-08T13:25:04.048Z,55.50
2022-12-08T13:27:53.180Z,60.63
2022-12-08T13:30:42.613Z,56.75
2022-12-08T13:33:18.055Z,63.33
2022-12-08T13:36:13.950Z,55.85
2022-12-08T13:38:58.337Z,55.25
2022-12-08T13:41:35.973Z,58.03
2022-12-08T13:47:35.292Z,54.35
2022-12-08T13:52:29.491Z,64.82
2022-12-08T13:57:24.465Z,69.13
2022-12-08T13:59:51.475Z,56.08
2022-12-08T14:02:48.071Z,60.35
2022-12-08T14:06:12.879Z,54.72
2022-12-08T14:09:02.629Z,65.72
2022-12-08T14:11:38.463Z,63.20
2022-12-08T14:14:05.394Z,61.83
2022-12-08T14:16:48.952Z,63.08
2022-12-08T14:19:19.335Z,63.87
2022-12-08T14:21:57.948Z,62.85
2022-12-08T14:24:44.954Z,66.15
2022-12-08T14:27:27.438Z,61.33
2022-12-08T14:30:01.408Z,63.70
2022-12-08T14:32:34.236Z,63.65
2022-12-08T14:35:20.992Z,62.83
2022-12-08T14:38:04.378Z,67.95
2022-12-08T14:40:37.223Z,63.92
2022-12-08T14:43:10.235Z,72.15
2022-12-08T14:45:43.211Z,64.95
2022-12-08T14:48:28.191Z,61.88
2022-12-08T14:50:58.728Z,61.33
2022-12-08T14:53:26.898Z,60.97
2022-12-08T14:55:54.767Z,64.57
2022-12-08T14:58:28.914Z,64.63
2022-12-08T15:01:00.466Z,64.43
2022-12-08T15:03:31.177Z,65.40
2022-12-08T15:06:06.501Z,64.32
2022-12-08T15:08:34.955Z,65.78
2022-12-08T15:11:24.025Z,64.50
2022-12-08T15:13:53.381Z,67.32
2022-12-08T15:16:38.392Z,69.22
2022-12-08T15:19:16.303Z,58.47
2022-12-08T15:21:46.034Z,65.18
2022-12-08T15:24:35.011Z,70.22
2022-12-08T15:27:49.532Z,68.05
2022-12-08T15:30:31.243Z,58.20
2022-12-08T15:32:58.243Z,60.53
2022-12-08T15:35:46.472Z,54.75
2022-12-08T15:38:29.508Z,53.97
2022-12-08T15:40:58.763Z,54.53
2022-12-08T15:43:26.433Z,57.88
2022-12-08T15:45:59.657Z,58.60
2022-12-08T15:48:30.566Z,59.95
2022-12-08T15:50:57.803Z,59.35
2022-12-08T15:53:45.044Z,57.08
2022-12-08T15:56:27.885Z,59.85
2022-12-08T15:59:15.007Z,57.65
2022-12-08T16:01:55.689Z,57.90
2022-12-08T16:08:29.989Z,59.33
2022-12-08T16:17:19.409Z,60.63
2022-12-08T16:19:46.318Z,72.25
2022-12-08T16:25:19.289Z,72.80
2022-12-08T16:28:36.846Z,70.03
2022-12-08T16:30:59.061Z,65.15
2022-12-08T16:34:00.044Z,65.28
2022-12-08T16:37:01.023Z,63.15
2022-12-08T16:39:45.749Z,64.60
2022-12-08T16:42:40.292Z,69.18
2022-12-08T16:45:31.096Z,64.45
2022-12-08T16:48:15.042Z,58.55
2022-12-08T16:50:45.713Z,53.45
2022-12-08T16:53:13.337Z,59.22
2022-12-08T16:55:40.817Z,57.83
2022-12-08T16:58:07.749Z,63.33
2022-12-08T17:00:55.068Z,69.25
2022-12-08T17:03:35.721Z,73.93
2022-12-08T17:06:08.804Z,73.30
2022-12-08T17:08:35.863Z,67.70
2022-12-08T17:11:08.695Z,75.97
2022-12-08T17:13:36.948Z,72.20
2022-12-08T17:16:12.568Z,73.15
2022-12-08T17:18:40.120Z,67.03
2022-12-08T17:21:11.992Z,61.65
2022-12-08T17:23:59.098Z,65.80
2022-12-08T17:26:39.658Z,55.08
2022-12-08T17:29:06.561Z,57.30
2022-12-08T17:31:33.991Z,56.42
2022-12-08T17:34:05.836Z,66.72
2022-12-08T17:36:53.071Z,62.28
2022-12-08T17:39:54.065Z,61.53
2022-12-08T17:42:55.093Z,50.38
2022-12-08T17:45:58.336Z,52.50
2022-12-08T17:48:39.171Z,57.15
2022-12-08T17:51:09.573Z,62.47
2022-12-08T17:53:37.632Z,69.43
2022-12-08T17:56:04.987Z,58.13
2022-12-08T17:58:31.843Z,63.67
2022-12-08T18:00:58.842Z,49.67
2022-12-08T18:03:25.816Z,55.95
2022-12-08T18:05:52.715Z,58.78
2022-12-08T18:08:40.093Z,59.80
2022-12-08T18:11:29.516Z,54.85
2022-12-08T18:14:18.379Z,60.67
2022-12-08T18:16:59.968Z,66.22
2022-12-08T18:19:27.926Z,65.55
2022-12-08T18:21:54.949Z,70.43
2022-12-08T18:24:23.429Z,67.72
2022-12-08T18:26:52.682Z,71.13
2022-12-08T18:29:20.912Z,63.70
2022-12-08T18:31:47.966Z,70.25
2022-12-08T18:34:14.938Z,65.68
2022-12-08T18:37:02.118Z,60.55
2022-12-08T18:39:42.789Z,64.82
2022-12-08T18:42:25.807Z,65.97
2022-12-08T18:45:17.893Z,60.03
2022-12-08T18:48:21.094Z,57.45
2022-12-08T18:51:03.757Z,55.40
2022-12-08T18:53:31.625Z,60.65
2022-12-08T18:55:58.575Z,61.83
2022-12-08T18:58:25.598Z,63.30
2022-12-08T19:00:52.469Z,54.80
2022-12-08T19:03:19.337Z,59.53
2022-12-08T19:05:46.611Z,59.53
2022-12-08T19:08:34.178Z,60.60
2022-12-08T19:11:23.434Z,61.78
2022-12-08T19:13:51.256Z,67.20
2022-12-08T19:16:38.147Z,61.35
2022-12-08T19:19:18.812Z,65.80
2022-12-08T19:21:46.649Z,67.57
2022-12-08T19:24:34.117Z,64.63
2022-12-08T19:27:14.679Z,60.33
2022-12-08T19:29:41.606Z,60.35
2022-12-08T19:32:08.724Z,63.00
2022-12-08T19:34:35.780Z,62.17
2022-12-08T19:37:23.131Z,60.65
2022-12-08T19:40:23.278Z,66.57
2022-12-08T19:43:08.820Z,61.08
2022-12-08T19:45:56.223Z,64.45
2022-12-08T19:48:57.132Z,63.28
2022-12-08T19:51:50.793Z,70.18
2022-12-08T19:54:17.656Z,59.08
2022-12-08T19:56:44.619Z,66.72
2022-12-08T19:59:11.826Z,71.55
2022-12-08T20:01:38.848Z,66.25
2022-12-08T20:04:05.786Z,70.65
2022-12-08T20:06:53.174Z,76.18
2022-12-08T20:09:54.166Z,70.28
2022-12-08T20:12:34.873Z,72.10
2022-12-08T20:15:01.906Z,61.28
2022-12-08T20:17:28.876Z,75.95
2022-12-08T20:19:55.806Z,70.63
2022-12-08T20:22:43.178Z,60.80
2022-12-08T20:25:23.846Z,69.88
2022-12-08T20:27:50.763Z,77.68
2022-12-08T20:30:17.761Z,74.40
2022-12-08T20:32:46.057Z,74.47
2022-12-08T20:35:33.205Z,68.78
2022-12-08T20:38:14.336Z,83.45
2022-12-08T20:40:43.780Z,70.03
2022-12-08T20:43:10.896Z,82.95
2022-12-08T20:45:37.894Z,65.55
2022-12-08T20:48:05.378Z,66.38
2022-12-08T20:50:32.469Z,68.20
2022-12-08T20:53:20.356Z,87.93
2022-12-08T20:56:21.274Z,70.65
2022-12-08T20:59:13.446Z,64.43
2022-12-08T21:01:41.141Z,66.68
2022-12-08T21:04:11.807Z,69.97
2022-12-08T21:06:59.643Z,60.03
2022-12-08T21:10:00.278Z,62.40
2022-12-08T21:12:41.163Z,57.58
2022-12-08T21:15:09.928Z,64.03
2022-12-08T21:17:37.224Z,60.33
2022-12-08T21:20:06.611Z,59.80
2022-12-08T21:22:34.085Z,66.70
2022-12-08T21:25:01.056Z,68.07
2022-12-08T21:27:28.118Z,64.30
2022-12-08T21:29:55.544Z,68.85
2022-12-08T21:32:27.212Z,73.88
2022-12-08T21:35:19.266Z,74.75
2022-12-08T21:38:06.770Z,66.47
2022-12-08T21:40:35.324Z,69.18
2022-12-08T21:43:03.822Z,75.55
2022-12-08T21:45:51.244Z,77.78
2022-12-08T21:48:32.929Z,70.90
2022-12-08T21:51:05.479Z,65.78
2022-12-08T21:53:32.670Z,64.38
2022-12-08T21:56:00.164Z,73.22
2022-12-08T21:58:27.462Z,69.35
2022-12-08T22:00:55.713Z,73.75
2022-12-08T22:03:22.965Z,69.75
2022-12-08T22:05:50.260Z,75.32
2022-12-08T22:08:17.424Z,70.82
2022-12-08T22:10:48.885Z,77.38
2022-12-08T22:13:15.910Z,82.13
2022-12-08T22:16:14.463Z,79.38
2022-12-08T22:19:15.355Z,79.22
2022-12-08T22:21:55.914Z,75.18
2022-12-08T22:24:23.372Z,81.35
2022-12-08T22:26:50.629Z,84.55
2022-12-08T22:29:17.625Z,73.90
2022-12-08T22:31:44.709Z,82.43
2022-12-08T22:34:12.537Z,78.72
2022-12-08T22:36:59.199Z,92.05
2022-12-08T22:39:40.599Z,77.30
2022-12-08T22:42:07.727Z,77.82
2022-12-08T22:44:35.024Z,77.25
2022-12-08T22:47:22.545Z,88.35
2022-12-08T22:50:04.827Z,81.90
2022-12-08T22:52:32.679Z,83.63
2022-12-08T22:55:00.088Z,82.15
2022-12-08T22:57:28.632Z,81.93
2022-12-08T22:59:55.746Z,93.25
2022-12-08T23:02:23.060Z,77.38
2022-12-08T23:04:50.624Z,92.97
2022-12-08T23:07:18.176Z,85.80
2022-12-08T23:09:45.712Z,90.75
2022-12-08T23:12:13.236Z,84.25
2022-12-08T23:14:40.419Z,95.28
2022-12-08T23:17:07.556Z,88.68
2022-12-08T23:19:55.387Z,103.30
2022-12-08T23:22:56.338Z,92.53
2022-12-08T23:25:41.396Z,86.97
2022-12-08T23:28:10.367Z,92.43
2022-12-08T23:30:40.777Z,100.53
2022-12-08T23:33:08.498Z,101.07
2022-12-08T23:35:55.791Z,92.28
2022-12-08T23:38:56.248Z,108.10
2022-12-08T23:41:37.190Z,92.80
2022-12-08T23:44:05.056Z,95.65
2022-12-08T23:46:32.668Z,97.35
2022-12-08T23:48:59.820Z,113.95
2022-12-08T23:51:27.548Z,97.35
2022-12-08T23:54:14.294Z,99.13
2022-12-08T23:56:55.494Z,100.35
2022-12-08T23:59:23.969Z,98.93
